Time;durP1;ratioP1;P1;durP2;ratioP2;P2;SDS_P1;SDS_P2;PMS_P1;PMS_P2;Temp;Humidity;BMP_temperature;BMP_pressure;BME280_temperature;BME280_humidity;BME280_pressure;Samples;Min_cycle;Max_cycle;Signal;HPM_P1;HPM_P2
2021/03/13 00:01:29;;;;;;;30.10;8.68;;;5.60;92.40;;;;;;5005101;28;20827;-49
2021/03/13 00:03:55;;;;;;;29.73;9.27;;;5.60;92.50;;;;;;5001440;28;20050;-49
2021/03/13 00:06:20;;;;;;;27.20;9.35;;;5.50;92.60;;;;;;5002682;28;20050;-52
2021/03/13 00:08:47;;;;;;;26.08;9.23;;;5.40;92.60;;;;;;5003756;28;20212;-49
2021/03/13 00:11:12;;;;;;;26.75;8.43;;;5.40;92.80;;;;;;5005584;28;20073;-49
2021/03/13 00:13:39;;;;;;;28.80;8.70;;;5.40;92.60;;;;;;5003755;28;20140;-52
2021/03/13 00:16:05;;;;;;;30.52;8.88;;;5.30;93.00;;;;;;5002949;28;20042;-54
2021/03/13 00:18:32;;;;;;;22.80;8.27;;;5.30;92.70;;;;;;5007003;28;20526;-51
2021/03/13 00:20:58;;;;;;;26.10;8.82;;;5.30;92.70;;;;;;4997607;28;20046;-54
2021/03/13 00:23:25;;;;;;;18.15;7.10;;;5.30;92.70;;;;;;5002656;28;20502;-55
2021/03/13 00:25:51;;;;;;;30.40;7.95;;;5.20;92.60;;;;;;5000105;28;20060;-49
2021/03/13 00:28:17;;;;;;;32.28;8.38;;;5.30;92.70;;;;;;5003761;28;20144;-51
2021/03/13 00:30:45;;;;;;;28.13;8.43;;;5.30;92.70;;;;;;5003533;28;20065;-53
2021/03/13 00:33:21;;;;;;;26.05;8.20;;;5.30;92.80;;;;;;5005338;28;20049;-54
2021/03/13 00:35:49;;;;;;;24.08;7.95;;;5.20;92.70;;;;;;5001880;28;20078;-51
2021/03/13 00:38:16;;;;;;;20.25;7.95;;;5.20;92.70;;;;;;5004476;28;20537;-51
2021/03/13 00:40:43;;;;;;;19.75;8.27;;;5.20;92.60;;;;;;5004441;28;20069;-52
2021/03/13 00:43:11;;;;;;;34.95;9.43;;;5.20;92.60;;;;;;5003175;28;20053;-53
2021/03/13 00:45:38;;;;;;;25.48;8.27;;;5.30;92.50;;;;;;5001588;28;20181;-53
2021/03/13 00:48:05;;;;;;;20.55;8.80;;;5.30;92.40;;;;;;5004842;28;20046;-53
2021/03/13 00:50:33;;;;;;;23.45;8.02;;;5.30;92.30;;;;;;5002156;28;20038;-48
2021/03/13 00:52:59;;;;;;;23.95;7.95;;;5.30;92.60;;;;;;5001775;28;20046;-50
2021/03/13 00:56:21;;;;;;;24.25;8.55;;;5.20;92.50;;;;;;5001986;28;20088;-52
2021/03/13 00:58:47;;;;;;;25.60;9.18;;;5.20;92.70;;;;;;5003005;28;20053;-49
2021/03/13 01:01:13;;;;;;;27.38;9.18;;;5.10;93.00;;;;;;4982713;28;20052;-50
2021/03/13 01:03:39;;;;;;;22.52;9.38;;;5.10;93.10;;;;;;5001452;28;20049;-55
2021/03/13 01:06:05;;;;;;;27.42;9.02;;;5.10;93.30;;;;;;4984471;28;20066;-48
2021/03/13 01:08:31;;;;;;;22.67;8.20;;;5.10;93.30;;;;;;5001402;28;20124;-47
2021/03/13 01:10:57;;;;;;;29.27;9.95;;;5.10;93.20;;;;;;4999639;28;20045;-54
2021/03/13 01:13:23;;;;;;;25.75;8.68;;;5.10;93.20;;;;;;4999930;28;20056;-54
2021/03/13 01:15:49;;;;;;;29.52;8.98;;;5.20;93.30;;;;;;5002579;28;20068;-50
2021/03/13 01:18:18;;;;;;;21.48;9.20;;;5.20;93.30;;;;;;5005781;28;20478;-52
2021/03/13 01:20:46;;;;;;;27.65;8.93;;;5.20;93.30;;;;;;5005350;28;20053;-48
2021/03/13 01:23:12;;;;;;;30.27;10.20;;;5.20;93.30;;;;;;5000707;28;20049;-56
2021/03/13 01:25:38;;;;;;;26.83;9.25;;;5.30;93.30;;;;;;5004434;28;20393;-48
2021/03/13 01:28:04;;;;;;;22.55;9.25;;;5.30;93.10;;;;;;5003628;28;20046;-52
2021/03/13 01:30:31;;;;;;;27.42;9.75;;;5.40;93.10;;;;;;5003053;28;20049;-50
2021/03/13 01:33:21;;;;;;;24.70;9.07;;;5.50;93.10;;;;;;5002768;28;20445;-52
2021/03/13 01:35:47;;;;;;;24.38;8.80;;;5.50;92.80;;;;;;4983152;28;20050;-53
2021/03/13 01:38:32;;;;;;;25.10;9.35;;;5.50;93.10;;;;;;4985677;28;20406;-50
2021/03/13 01:40:58;;;;;;;26.92;10.18;;;5.60;93.20;;;;;;5002193;28;20910;-49
2021/03/13 01:43:24;;;;;;;22.10;8.35;;;5.60;93.00;;;;;;5000561;28;20148;-47
2021/03/13 01:45:50;;;;;;;29.67;9.27;;;5.60;93.10;;;;;;5001077;28;20053;-49
2021/03/13 01:48:18;;;;;;;26.40;8.98;;;5.60;92.70;;;;;;5002040;28;20052;-49
2021/03/13 01:50:46;;;;;;;30.83;8.80;;;5.50;93.10;;;;;;5002396;28;20042;-49
2021/03/13 01:53:11;;;;;;;23.98;8.63;;;5.50;93.30;;;;;;4985375;28;20060;-48
2021/03/13 01:55:38;;;;;;;22.70;8.20;;;5.50;93.30;;;;;;4999449;28;20046;-57
2021/03/13 01:58:04;;;;;;;28.52;8.57;;;5.50;93.20;;;;;;5000947;28;20128;-48
2021/03/13 02:00:30;;;;;;;27.08;8.45;;;5.60;93.30;;;;;;4984491;28;20136;-52
2021/03/13 02:02:56;;;;;;;25.10;8.93;;;5.60;93.10;;;;;;4984269;28;20046;-54
2021/03/13 02:05:21;;;;;;;24.70;9.25;;;5.60;93.20;;;;;;5003561;28;20041;-54
2021/03/13 02:08:09;;;;;;;24.50;8.32;;;5.70;93.30;;;;;;4976950;28;20043;-54
2021/03/13 02:10:50;;;;;;;21.55;8.57;;;5.70;93.10;;;;;;5002359;28;20053;-54
2021/03/13 02:13:31;;;;;;;22.17;9.07;;;5.70;93.00;;;;;;5001352;28;20045;-53
2021/03/13 02:16:28;;;;;;;24.33;8.10;;;5.70;93.00;;;;;;5002433;28;20046;-55
2021/03/13 02:19:10;;;;;;;29.92;10.13;;;5.80;93.20;;;;;;5001202;28;20050;-53
2021/03/13 02:21:57;;;;;;;24.27;8.38;;;5.80;92.50;;;;;;4978763;28;20137;-52
2021/03/13 02:24:29;;;;;;;23.55;7.72;;;5.80;92.80;;;;;;4998521;28;20054;-50
2021/03/13 02:27:13;;;;;;;25.63;8.35;;;5.80;92.60;;;;;;5000646;28;20049;-47
2021/03/13 02:30:03;;;;;;;20.02;7.95;;;5.80;92.70;;;;;;5001704;28;20060;-45
2021/03/13 02:32:54;;;;;;;19.95;7.22;;;5.80;92.40;;;;;;5001418;28;20057;-55
2021/03/13 02:35:32;;;;;;;25.30;8.68;;;5.80;92.60;;;;;;5000081;28;20048;-48
2021/03/13 02:38:05;;;;;;;25.80;7.32;;;5.80;92.60;;;;;;5000222;28;20058;-49
2021/03/13 02:40:34;;;;;;;18.67;7.22;;;5.80;92.60;;;;;;4945098;23;20542;-50
2021/03/13 02:43:06;;;;;;;20.48;7.80;;;5.90;92.30;;;;;;5016839;28;20049;-51
2021/03/13 02:45:42;;;;;;;18.95;7.22;;;5.80;92.60;;;;;;5021481;28;20473;-54
2021/03/13 02:48:12;;;;;;;23.65;7.18;;;5.80;92.40;;;;;;5034038;28;20436;-52
2021/03/13 02:50:40;;;;;;;23.55;7.38;;;5.80;92.50;;;;;;5038736;28;20077;-54
2021/03/13 02:53:07;;;;;;;19.25;6.80;;;5.80;92.60;;;;;;5036495;28;20067;-53
2021/03/13 02:55:34;;;;;;;24.02;8.00;;;5.90;92.50;;;;;;5039202;28;20088;-49
2021/03/13 02:58:03;;;;;;;18.65;7.13;;;5.90;92.80;;;;;;5040121;28;20128;-48
2021/03/13 03:00:36;;;;;;;23.35;7.65;;;5.90;92.90;;;;;;5040731;28;20583;-49
2021/03/13 03:03:04;;;;;;;16.02;6.18;;;5.80;93.10;;;;;;5039643;28;20036;-45
2021/03/13 03:05:30;;;;;;;20.23;7.18;;;5.80;93.00;;;;;;5040157;28;20128;-52
2021/03/13 03:08:01;;;;;;;24.35;7.28;;;5.80;93.20;;;;;;5034514;28;20444;-50
2021/03/13 03:10:31;;;;;;;18.83;6.45;;;5.80;93.20;;;;;;5038697;28;20174;-55
2021/03/13 03:13:00;;;;;;;20.95;6.80;;;5.80;93.30;;;;;;5038832;28;20047;-52
2021/03/13 03:15:28;;;;;;;20.30;7.10;;;5.90;93.40;;;;;;5042583;28;20045;-52
2021/03/13 03:17:59;;;;;;;14.63;6.93;;;5.80;93.30;;;;;;5022790;28;20051;-52
2021/03/13 03:20:27;;;;;;;21.75;7.03;;;5.80;93.40;;;;;;5036968;28;20059;-54
2021/03/13 03:22:54;;;;;;;14.68;6.05;;;5.80;93.40;;;;;;5019313;28;20556;-56
2021/03/13 03:25:20;;;;;;;12.15;6.28;;;5.80;93.40;;;;;;5022461;28;20056;-53
2021/03/13 03:27:52;;;;;;;15.85;5.90;;;5.80;93.50;;;;;;5038202;28;20037;-59
2021/03/13 03:30:18;;;;;;;;;;;5.80;93.50;;;;;;5044905;28;20053;-54
2021/03/13 03:32:44;;;;;;;13.25;5.57;;;5.80;93.50;;;;;;5026824;28;19931;-55
2021/03/13 03:35:11;;;;;;;11.27;5.30;;;5.80;93.70;;;;;;5028735;28;20045;-54
2021/03/13 03:37:37;;;;;;;13.85;6.10;;;5.80;93.70;;;;;;5042386;28;20045;-61
2021/03/13 03:40:05;;;;;;;9.50;4.82;;;5.70;93.90;;;;;;5045065;28;20056;-61
2021/03/13 03:42:32;;;;;;;11.05;5.35;;;5.70;93.70;;;;;;5042701;28;20049;-53
2021/03/13 03:45:01;;;;;;;13.38;5.70;;;5.60;93.90;;;;;;5027147;28;20502;-51
2021/03/13 03:47:30;;;;;;;9.23;5.13;;;5.60;94.10;;;;;;5044019;28;20048;-54
2021/03/13 03:49:56;;;;;;;14.00;5.63;;;5.60;94.20;;;;;;5027676;28;20574;-52
2021/03/13 03:52:23;;;;;;;9.27;5.72;;;5.60;94.40;;;;;;5025610;28;20052;-51
2021/03/13 03:54:50;;;;;;;11.88;5.25;;;5.60;94.60;;;;;;5023896;28;20049;-56
2021/03/13 03:57:17;;;;;;;10.20;5.57;;;5.50;94.50;;;;;;5043673;28;20052;-56
2021/03/13 03:59:44;;;;;;;10.90;5.20;;;5.50;94.80;;;;;;5023069;28;20060;-56
2021/03/13 04:02:10;;;;;;;11.27;5.80;;;5.50;94.80;;;;;;5023837;28;20040;-53
2021/03/13 04:04:37;;;;;;;13.65;6.60;;;5.50;94.90;;;;;;5041764;28;20049;-56
2021/03/13 04:07:03;;;;;;;13.80;6.32;;;5.50;95.10;;;;;;5045193;28;20032;-54
2021/03/13 04:09:31;;;;;;;10.00;5.85;;;5.50;95.10;;;;;;5041847;28;20048;-58
2021/03/13 04:11:58;;;;;;;10.98;5.63;;;5.50;95.30;;;;;;5046570;28;20053;-56
2021/03/13 04:14:25;;;;;;;11.38;5.90;;;5.50;95.30;;;;;;5041061;28;20045;-55
2021/03/13 04:17:23;;;;;;;11.13;6.72;;;5.40;95.40;;;;;;5044066;28;20780;-51
2021/03/13 04:19:49;;;;;;;8.38;5.45;;;5.40;95.30;;;;;;5043115;28;20575;-52
2021/03/13 04:22:15;;;;;;;11.07;5.55;;;5.40;95.30;;;;;;5047020;28;20099;-56
2021/03/13 04:24:42;;;;;;;8.70;4.97;;;5.40;95.40;;;;;;5024681;28;20493;-54
2021/03/13 04:27:10;;;;;;;14.27;5.75;;;5.30;95.30;;;;;;5040829;28;20068;-50
2021/03/13 04:29:36;;;;;;;7.68;5.50;;;5.40;95.50;;;;;;5039126;28;20159;-51
2021/03/13 04:32:03;;;;;;;11.05;5.95;;;5.40;95.60;;;;;;5043499;28;20045;-52
2021/03/13 04:34:31;;;;;;;9.30;5.97;;;5.40;95.70;;;;;;5044255;28;20057;-52
2021/03/13 04:36:57;;;;;;;12.43;5.57;;;5.40;95.70;;;;;;5028802;28;20037;-52
2021/03/13 04:39:24;;;;;;;10.60;6.35;;;5.40;95.70;;;;;;5040840;28;20072;-54
2021/03/13 04:41:51;;;;;;;9.70;5.50;;;5.40;95.80;;;;;;5044772;28;20140;-54
2021/03/13 04:44:18;;;;;;;11.57;6.25;;;5.50;95.90;;;;;;5045023;28;20041;-56
2021/03/13 04:46:44;;;;;;;8.75;5.60;;;5.40;95.80;;;;;;5042360;28;20049;-52
2021/03/13 04:49:10;;;;;;;9.75;6.28;;;5.50;95.90;;;;;;5042147;28;20048;-55
2021/03/13 04:51:36;;;;;;;9.13;4.70;;;5.50;95.90;;;;;;5044658;28;20126;-54
2021/03/13 04:54:02;;;;;;;8.40;5.95;;;5.50;95.90;;;;;;5041245;28;20091;-52
2021/03/13 04:56:28;;;;;;;7.88;5.32;;;5.50;95.90;;;;;;5042141;28;20056;-48
2021/03/13 04:58:54;;;;;;;9.80;5.78;;;5.50;95.90;;;;;;5042383;28;20041;-54
2021/03/13 05:01:20;;;;;;;9.52;5.90;;;5.60;95.80;;;;;;5044768;28;20079;-53
2021/03/13 05:03:49;;;;;;;8.50;6.10;;;5.50;95.80;;;;;;5039660;28;20047;-53
2021/03/13 05:06:15;;;;;;;8.95;6.35;;;5.60;95.90;;;;;;5043036;28;20076;-54
2021/03/13 05:08:40;;;;;;;9.70;6.63;;;5.60;95.90;;;;;;5036740;28;20124;-52
2021/03/13 05:11:08;;;;;;;9.63;5.78;;;5.60;96.00;;;;;;5045325;28;20049;-51
2021/03/13 05:13:33;;;;;;;10.38;6.68;;;5.60;95.90;;;;;;5042441;28;20684;-53
2021/03/13 05:15:59;;;;;;;10.18;6.03;;;5.70;95.90;;;;;;5046203;28;20033;-53
2021/03/13 05:18:25;;;;;;;11.98;6.88;;;5.70;95.90;;;;;;5041599;28;20052;-52
2021/03/13 05:20:51;;;;;;;8.73;5.35;;;5.70;96.00;;;;;;5043435;28;20048;-55
2021/03/13 05:23:17;;;;;;;9.25;6.63;;;5.70;95.90;;;;;;5045973;28;20041;-51
2021/03/13 05:25:43;;;;;;;9.30;6.45;;;5.80;95.80;;;;;;5043922;28;20037;-52
2021/03/13 05:28:10;;;;;;;8.88;6.22;;;5.80;95.90;;;;;;5043900;28;20083;-56
2021/03/13 05:30:36;;;;;;;7.75;6.07;;;5.80;95.90;;;;;;5041566;28;20109;-55
2021/03/13 05:33:01;;;;;;;10.93;6.15;;;5.80;95.90;;;;;;5041779;28;20707;-56
2021/03/13 05:35:27;;;;;;;8.35;5.90;;;5.80;95.80;;;;;;5042244;28;20100;-53
2021/03/13 05:37:54;;;;;;;12.43;6.22;;;5.90;95.80;;;;;;5044409;28;20448;-51
2021/03/13 05:40:20;;;;;;;9.88;6.45;;;5.90;95.90;;;;;;5042903;28;20051;-55
2021/03/13 05:42:46;;;;;;;10.40;6.35;;;5.90;95.90;;;;;;5042483;28;20053;-54
2021/03/13 05:45:12;;;;;;;8.05;4.97;;;6.00;95.90;;;;;;5041712;28;21448;-53
2021/03/13 05:47:41;;;;;;;9.07;6.03;;;6.00;95.60;;;;;;5037385;28;20063;-52
2021/03/13 05:50:22;;;;;;;10.50;5.68;;;6.10;95.60;;;;;;5045654;28;20047;-54
2021/03/13 05:52:58;;;;;;;7.90;6.05;;;6.00;95.60;;;;;;5039233;28;20505;-50
2021/03/13 05:55:25;;;;;;;11.02;6.40;;;6.10;95.70;;;;;;5024373;28;20084;-55
2021/03/13 05:57:52;;;;;;;8.90;6.13;;;6.10;95.70;;;;;;5042028;28;20052;-53
2021/03/13 06:00:19;;;;;;;10.43;6.10;;;6.10;95.80;;;;;;5040976;28;20041;-53
2021/03/13 06:02:46;;;;;;;9.07;6.60;;;6.10;95.80;;;;;;5037241;28;20056;-55
2021/03/13 06:05:13;;;;;;;11.10;7.50;;;6.10;95.80;;;;;;5043361;28;20041;-49
2021/03/13 06:07:42;;;;;;;9.90;7.20;;;6.20;95.90;;;;;;5041492;28;20064;-55
2021/03/13 06:10:11;;;;;;;14.00;7.07;;;6.20;95.80;;;;;;5041943;28;20053;-50
2021/03/13 06:12:37;;;;;;;8.98;6.88;;;6.20;95.80;;;;;;5041022;28;20056;-52
2021/03/13 06:15:03;;;;;;;8.48;6.18;;;6.30;95.80;;;;;;5042560;28;20045;-53
2021/03/13 06:17:49;;;;;;;11.80;6.82;;;6.30;95.80;;;;;;5040140;28;20052;-56
2021/03/13 06:20:21;;;;;;;10.73;6.38;;;6.30;95.60;;;;;;5040867;28;20051;-55
2021/03/13 06:22:46;;;;;;;13.57;7.68;;;6.30;95.70;;;;;;5021769;28;20052;-51
2021/03/13 06:25:16;;;;;;;10.88;5.15;;;6.40;95.70;;;;;;5041848;28;20743;-52
2021/03/13 06:28:01;;;;;;;10.40;5.85;;;6.30;95.60;;;;;;5037097;28;20523;-52
2021/03/13 06:30:36;;;;;;;11.93;6.47;;;6.30;95.60;;;;;;5040420;28;20091;-52
2021/03/13 06:33:18;;;;;;;11.43;5.90;;;6.30;95.60;;;;;;5043156;28;20126;-55
2021/03/13 06:35:44;;;;;;;10.70;5.70;;;6.30;95.60;;;;;;5042097;28;20048;-53
2021/03/13 06:38:20;;;;;;;10.60;5.65;;;6.30;95.60;;;;;;5042574;28;20037;-52
2021/03/13 06:40:46;;;;;;;9.43;5.93;;;6.30;95.60;;;;;;5041301;28;20037;-54
2021/03/13 06:43:18;;;;;;;9.90;5.57;;;6.30;95.70;;;;;;5042781;28;20048;-53
2021/03/13 06:46:03;;;;;;;9.80;5.47;;;6.40;95.60;;;;;;5038076;28;20095;-56
2021/03/13 06:48:43;;;;;;;9.68;5.43;;;6.30;95.70;;;;;;5034816;28;20061;-56
2021/03/13 06:51:33;;;;;;;16.58;10.73;;;6.40;95.80;;;;;;5037348;28;20051;-61
2021/03/13 06:54:02;;;;;;;10.80;5.78;;;6.40;95.70;;;;;;5006353;28;20521;-58
2021/03/13 06:56:30;;;;;;;5.50;2.60;;;6.40;95.60;;;;;;5042987;28;20121;-56
2021/03/13 06:59:01;;;;;;;4.07;1.85;;;6.50;94.60;;;;;;5041396;28;20112;-56
2021/03/13 07:01:31;;;;;;;4.18;2.13;;;6.40;94.10;;;;;;5039482;28;20202;-58
2021/03/13 07:03:58;;;;;;;4.18;1.40;;;6.10;93.70;;;;;;5024291;28;20395;-57
2021/03/13 07:06:25;;;;;;;5.57;1.10;;;5.70;93.00;;;;;;5036855;28;20076;-58
2021/03/13 07:08:53;;;;;;;7.45;2.45;;;5.40;93.20;;;;;;5040300;28;20076;-57
2021/03/13 07:11:23;;;;;;;5.15;2.15;;;5.30;93.10;;;;;;5041392;28;20079;-58
2021/03/13 07:13:55;;;;;;;4.32;1.67;;;5.20;93.00;;;;;;5045302;28;20497;-58
2021/03/13 07:16:26;;;;;;;5.30;1.10;;;5.20;93.60;;;;;;5038228;28;20053;-58
2021/03/13 07:18:54;;;;;;;3.72;1.20;;;5.30;93.70;;;;;;5020163;28;20595;-57
2021/03/13 07:21:21;;;;;;;6.95;1.65;;;5.30;93.40;;;;;;5042426;28;20083;-56
2021/03/13 07:24:17;;;;;;;3.80;1.48;;;5.40;93.30;;;;;;5041681;28;20060;-55
2021/03/13 07:26:45;;;;;;;5.65;1.40;;;5.40;93.00;;;;;;4938665;28;20086;-54
2021/03/13 07:29:14;;;;;;;3.33;1.25;;;5.50;92.70;;;;;;4934860;29;20075;-54
2021/03/13 07:31:59;;;;;;;6.97;1.95;;;5.50;92.90;;;;;;4932669;29;20211;-53
2021/03/13 07:34:30;;;;;;;7.55;1.92;;;5.50;92.70;;;;;;4935172;29;20047;-53
2021/03/13 07:36:58;;;;;;;10.57;2.28;;;5.60;92.20;;;;;;4937492;29;20059;-51
2021/03/13 07:39:29;;;;;;;6.40;1.73;;;5.60;92.40;;;;;;4929961;29;20048;-50
2021/03/13 07:42:00;;;;;;;9.02;2.38;;;5.70;92.20;;;;;;4916561;29;20396;-52
2021/03/13 07:44:27;;;;;;;9.35;1.60;;;5.90;92.10;;;;;;4932617;29;20427;-52
2021/03/13 07:46:53;;;;;;;9.25;2.35;;;6.10;92.20;;;;;;4932862;28;20060;-52
2021/03/13 07:49:21;;;;;;;7.32;1.75;;;6.10;90.70;;;;;;4937242;29;20067;-51
2021/03/13 07:51:47;;;;;;;6.50;2.50;;;6.10;90.60;;;;;;4934721;28;20133;-51
2021/03/13 07:54:22;;;;;;;8.95;2.15;;;6.30;90.80;;;;;;4935178;29;20590;-51
2021/03/13 07:56:49;;;;;;;9.48;1.88;;;6.70;90.10;;;;;;4929753;29;20188;-50
2021/03/13 07:59:45;;;;;;;11.75;2.55;;;7.00;89.50;;;;;;4918300;29;20047;-53
2021/03/13 08:02:30;;;;;;;12.07;3.45;;;6.80;88.20;;;;;;4947452;28;20063;-50
2021/03/13 08:05:03;;;;;;;10.38;2.47;;;6.60;89.60;;;;;;5040043;28;20061;-51
2021/03/13 08:07:53;;;;;;;9.27;2.65;;;6.70;89.80;;;;;;5037946;28;20094;-50
2021/03/13 08:10:42;;;;;;;12.30;2.63;;;6.70;89.00;;;;;;5039332;28;20049;-50
2021/03/13 08:13:32;;;;;;;12.05;3.35;;;6.60;87.30;;;;;;5038691;28;20120;-49
2021/03/13 08:16:30;;;;;;;16.35;3.17;;;6.50;86.40;;;;;;4976848;28;20121;-48
2021/03/13 08:18:59;;;;;;;14.10;3.25;;;6.50;88.80;;;;;;4953871;28;20112;-48
2021/03/13 08:21:25;;;;;;;14.63;2.83;;;6.50;86.40;;;;;;4953896;28;20516;-49
2021/03/13 08:23:51;;;;;;;14.55;3.30;;;6.40;86.60;;;;;;4982330;28;20061;-50
2021/03/13 08:26:21;;;;;;;14.40;2.90;;;6.40;86.50;;;;;;4974847;28;20042;-49
2021/03/13 08:28:50;;;;;;;13.73;3.55;;;6.40;88.00;;;;;;4974675;28;20074;-49
2021/03/13 08:31:24;;;;;;;15.68;3.40;;;6.50;88.20;;;;;;4978987;28;20050;-52
2021/03/13 08:33:58;;;;;;;16.25;3.97;;;6.60;85.20;;;;;;4977650;28;20050;-53
2021/03/13 08:36:31;;;;;;;14.77;3.15;;;6.60;85.80;;;;;;4983146;28;20810;-52
2021/03/13 08:39:00;;;;;;;17.90;3.63;;;6.70;87.10;;;;;;4978588;28;20066;-48
2021/03/13 08:41:51;;;;;;;19.23;3.40;;;6.70;87.40;;;;;;4976871;28;20518;-52
2021/03/13 08:44:25;;;;;;;15.88;3.25;;;6.80;86.00;;;;;;4977742;28;20046;-50
2021/03/13 08:47:05;;;;;;;19.90;4.05;;;7.00;85.90;;;;;;4978112;28;20058;-53
2021/03/13 08:49:31;;;;;;;15.75;3.53;;;7.20;85.00;;;;;;4977199;28;20170;-53
2021/03/13 08:52:09;;;;;;;17.08;3.65;;;7.40;83.50;;;;;;4979360;28;20145;-48
2021/03/13 08:54:48;;;;;;;19.25;4.80;;;7.60;85.00;;;;;;5023824;28;20041;-53
2021/03/13 08:57:24;;;;;;;19.30;6.35;;;7.60;83.20;;;;;;5050187;28;20033;-53
2021/03/13 08:59:55;;;;;;;15.20;3.53;;;7.90;80.40;;;;;;5042395;28;20045;-58
2021/03/13 09:02:44;;;;;;;21.13;3.60;;;7.80;80.10;;;;;;5044978;28;20049;-58
2021/03/13 09:05:12;;;;;;;15.30;3.85;;;7.70;80.90;;;;;;5042231;28;20060;-58
2021/03/13 09:07:40;;;;;;;16.92;3.65;;;7.50;81.40;;;;;;5047202;28;20051;-58
2021/03/13 09:10:08;;;;;;;48.13;27.05;;;7.50;79.60;;;;;;5044712;28;20049;-45
2021/03/13 09:12:36;;;;;;;16.33;6.15;;;7.60;78.00;;;;;;5030192;28;20045;-39
2021/03/13 09:15:05;;;;;;;18.02;3.63;;;7.60;77.40;;;;;;5048292;28;20055;-40
2021/03/13 09:17:35;;;;;;;14.45;3.35;;;7.60;77.70;;;;;;5040236;28;20538;-40
2021/03/13 09:20:40;;;;;;;13.13;3.70;;;7.70;79.30;;;;;;5028574;28;20049;-43
2021/03/13 09:23:06;;;;;;;16.88;3.80;;;7.70;76.40;;;;;;5031188;28;20049;-40
2021/03/13 09:25:34;;;;;;;12.70;2.97;;;7.90;75.10;;;;;;5027437;28;20057;-42
2021/03/13 09:28:00;;;;;;;14.20;2.85;;;7.70;79.90;;;;;;5009745;28;20583;-41
2021/03/13 09:30:28;;;;;;;14.73;2.63;;;7.50;82.90;;;;;;4993712;28;20088;-42
2021/03/13 09:32:54;;;;;;;13.25;2.97;;;7.40;83.80;;;;;;5039954;28;20075;-40
2021/03/13 09:35:27;;;;;;;17.58;3.60;;;7.60;78.70;;;;;;5045306;28;20126;-44
2021/03/13 09:38:09;;;;;;;13.30;3.20;;;8.20;75.30;;;;;;5046810;28;20037;-40
2021/03/13 09:40:36;;;;;;;14.52;3.70;;;8.90;74.90;;;;;;5034397;28;20045;-43
2021/03/13 09:43:12;;;;;;;20.05;3.67;;;8.90;72.70;;;;;;5005752;28;20058;-41
2021/03/13 09:45:38;;;;;;;10.75;2.78;;;9.20;72.70;;;;;;5006811;28;20096;-41
2021/03/13 09:48:07;;;;;;;15.05;2.78;;;9.40;69.50;;;;;;5000745;28;20065;-42
2021/03/13 09:50:35;;;;;;;16.48;3.80;;;9.70;68.50;;;;;;4988482;28;20042;-40
2021/03/13 09:53:02;;;;;;;11.82;2.60;;;9.90;65.60;;;;;;5003718;28;20136;-40
2021/03/13 09:55:31;;;;;;;11.27;2.50;;;10.40;69.10;;;;;;5005495;28;20056;-40
2021/03/13 09:57:59;;;;;;;12.05;3.53;;;10.20;68.80;;;;;;5003193;28;20542;-40
2021/03/13 10:00:41;;;;;;;10.90;2.78;;;9.20;65.70;;;;;;5007141;28;20119;-40
2021/03/13 10:03:12;;;;;;;14.07;2.78;;;8.70;67.80;;;;;;5004549;28;20396;-43
2021/03/13 10:05:38;;;;;;;11.45;2.55;;;8.30;69.30;;;;;;5003974;28;20053;-41
2021/03/13 10:08:06;;;;;;;13.23;3.15;;;8.30;71.90;;;;;;5004170;28;20054;-41
2021/03/13 10:10:32;;;;;;;16.15;3.35;;;8.80;72.10;;;;;;5005242;28;20140;-41
2021/03/13 10:13:05;;;;;;;18.83;4.18;;;9.00;68.90;;;;;;5005894;28;20041;-41
2021/03/13 10:15:34;;;;;;;15.25;3.40;;;8.90;69.60;;;;;;5005504;28;20057;-40
2021/03/13 10:18:15;;;;;;;13.45;3.58;;;8.40;75.30;;;;;;5002540;28;20517;-42
2021/03/13 10:20:50;;;;;;;13.75;3.60;;;7.50;76.30;;;;;;4999877;28;20073;-41
2021/03/13 10:23:22;;;;;;;14.18;3.50;;;7.10;79.50;;;;;;5002143;28;20049;-39
2021/03/13 10:25:55;;;;;;;14.13;3.88;;;6.60;83.60;;;;;;5001800;28;20057;-39
2021/03/13 10:28:44;;;;;;;14.00;3.30;;;6.50;86.10;;;;;;5001198;28;20112;-39
2021/03/13 10:31:11;;;;;;;15.57;3.10;;;6.60;85.30;;;;;;5001719;28;20046;-43
2021/03/13 10:33:41;;;;;;;16.77;3.42;;;6.40;85.50;;;;;;5001938;28;20057;-39
2021/03/13 10:36:07;;;;;;;13.93;2.88;;;7.10;85.30;;;;;;5002709;28;20060;-39
2021/03/13 10:38:46;;;;;;;15.27;2.97;;;7.90;82.70;;;;;;5003041;28;20049;-40
2021/03/13 10:41:23;;;;;;;16.20;3.13;;;8.80;80.70;;;;;;5002931;28;20491;-39
2021/03/13 10:43:52;;;;;;;14.20;3.40;;;9.20;76.70;;;;;;5027096;28;20049;-46
2021/03/13 10:46:25;;;;;;;15.30;3.88;;;8.90;78.20;;;;;;5040614;28;20045;-39
2021/03/13 10:48:54;;;;;;;15.00;3.25;;;8.30;77.50;;;;;;5012660;28;20053;-44
2021/03/13 10:51:26;;;;;;;19.60;3.88;;;8.00;80.60;;;;;;5029164;28;20049;-41
2021/03/13 10:53:53;;;;;;;17.50;3.33;;;7.60;80.70;;;;;;5035649;28;20485;-39
2021/03/13 10:56:19;;;;;;;17.83;3.47;;;7.20;80.10;;;;;;5029467;28;20040;-40
2021/03/13 10:58:52;;;;;;;16.60;3.70;;;7.00;81.30;;;;;;5035629;28;20048;-40
2021/03/13 11:01:21;;;;;;;21.52;8.23;;;6.80;82.60;;;;;;5032003;28;20083;-52
2021/03/13 11:03:49;;;;;;;15.30;2.88;;;6.70;82.90;;;;;;5030170;28;20037;-55
2021/03/13 11:06:28;;;;;;;10.20;2.60;;;6.30;84.50;;;;;;5025867;28;20060;-58
2021/03/13 11:08:55;;;;;;;8.30;2.00;;;5.80;88.60;;;;;;5037741;28;20045;-55
2021/03/13 11:11:22;;;;;;;11.25;2.17;;;5.40;90.30;;;;;;5034955;28;20119;-58
2021/03/13 11:13:48;;;;;;;9.80;2.03;;;5.30;90.80;;;;;;5016499;28;20075;-58
2021/03/13 11:16:14;;;;;;;10.30;2.35;;;5.20;91.10;;;;;;5041222;28;20049;-55
2021/03/13 11:18:40;;;;;;;10.93;2.58;;;5.40;90.50;;;;;;5032572;28;20390;-57
2021/03/13 11:21:06;;;;;;;14.45;2.80;;;5.50;90.80;;;;;;5031872;28;20136;-57
2021/03/13 11:23:53;;;;;;;12.65;2.38;;;5.70;89.50;;;;;;5037508;28;20065;-55
2021/03/13 11:26:20;;;;;;;13.40;3.00;;;5.80;89.50;;;;;;5033551;23;20057;-55
2021/03/13 11:28:46;;;;;;;11.70;2.63;;;6.00;89.10;;;;;;5007434;28;20059;-57
2021/03/13 11:31:12;;;;;;;12.77;2.90;;;6.20;88.00;;;;;;5012753;28;20053;-56
2021/03/13 11:33:39;;;;;;;19.75;3.65;;;6.80;88.80;;;;;;5028266;28;20124;-57
2021/03/13 11:36:06;;;;;;;21.83;4.70;;;7.40;86.90;;;;;;5031774;28;20120;-56
2021/03/13 11:38:33;;;;;;;15.07;3.67;;;7.40;83.80;;;;;;5028487;28;20052;-55
2021/03/13 11:41:04;;;;;;;15.98;3.60;;;7.30;82.00;;;;;;5038582;28;20037;-55
2021/03/13 11:43:31;;;;;;;15.25;3.72;;;7.90;80.90;;;;;;5035308;28;20041;-52
2021/03/13 11:45:57;;;;;;;17.25;3.92;;;7.80;79.50;;;;;;5034105;28;20122;-55
2021/03/13 11:48:23;;;;;;;14.70;3.13;;;7.70;80.00;;;;;;5033209;28;20528;-54
2021/03/13 11:50:50;;;;;;;17.15;6.90;;;7.50;80.90;;;;;;5032969;28;20580;-55
2021/03/13 11:53:25;;;;;;;15.38;3.67;;;7.30;80.30;;;;;;5039073;28;20045;-49
2021/03/13 11:55:51;;;;;;;12.35;2.72;;;6.90;83.10;;;;;;5012554;28;20516;-56
2021/03/13 11:58:16;;;;;;;10.45;2.47;;;5.90;86.60;;;;;;5002059;28;20046;-58
2021/03/13 12:00:44;;;;;;;12.48;4.07;;;5.40;88.50;;;;;;5029242;28;20045;-51
2021/03/13 12:03:10;;;;;;;6.13;1.85;;;5.10;91.00;;;;;;5033606;28;20068;-52
2021/03/13 12:05:37;;;;;;;7.43;1.58;;;4.90;92.10;;;;;;5004156;28;20073;-54
2021/03/13 12:08:04;;;;;;;9.45;2.03;;;4.80;92.50;;;;;;5021884;28;20034;-52
2021/03/13 12:10:30;;;;;;;6.35;1.85;;;4.80;92.50;;;;;;4992310;28;20826;-52
2021/03/13 12:12:59;;;;;;;7.82;2.03;;;4.80;92.70;;;;;;5015510;28;20041;-55
2021/03/13 12:15:25;;;;;;;8.45;2.05;;;4.90;92.60;;;;;;5003488;28;20172;-51
2021/03/13 12:17:51;;;;;;;10.02;2.53;;;5.00;92.50;;;;;;5020100;28;20702;-52
2021/03/13 12:20:18;;;;;;;9.95;2.08;;;5.00;92.30;;;;;;5019676;28;20054;-54
2021/03/13 12:22:46;;;;;;;10.00;1.70;;;5.00;92.00;;;;;;5020845;28;20060;-56
2021/03/13 12:25:11;;;;;;;8.02;1.80;;;4.70;92.00;;;;;;5010523;28;20041;-52
2021/03/13 12:27:40;;;;;;;9.05;1.73;;;4.70;92.30;;;;;;5029342;28;20519;-57
2021/03/13 12:30:11;;;;;;;12.43;2.40;;;4.90;92.60;;;;;;5019198;28;20056;-56
2021/03/13 12:32:38;;;;;;;12.35;2.00;;;5.10;92.30;;;;;;5021669;28;20124;-55
2021/03/13 12:35:06;;;;;;;8.50;2.92;;;5.20;92.00;;;;;;5005951;28;20489;-55
2021/03/13 12:37:32;;;;;;;10.38;2.50;;;5.40;92.00;;;;;;5014596;28;20746;-54
2021/03/13 12:39:58;;;;;;;12.40;2.58;;;5.50;91.60;;;;;;5040639;28;20037;-54
2021/03/13 12:42:24;;;;;;;14.60;2.63;;;5.50;91.50;;;;;;5040122;28;20044;-57
2021/03/13 12:44:50;;;;;;;12.40;3.10;;;5.70;91.90;;;;;;5030124;28;20048;-55
2021/03/13 12:47:16;;;;;;;16.02;2.55;;;5.90;91.70;;;;;;5019378;28;20072;-52
2021/03/13 12:49:42;;;;;;;15.50;3.25;;;6.20;91.60;;;;;;5021645;28;20156;-53
2021/03/13 12:52:08;;;;;;;14.63;3.00;;;6.50;90.60;;;;;;5002953;28;20077;-55
2021/03/13 12:54:34;;;;;;;16.10;2.97;;;6.70;90.60;;;;;;4992303;28;20045;-55
2021/03/13 12:56:59;;;;;;;11.48;2.63;;;7.00;87.80;;;;;;5021189;28;20037;-57
2021/03/13 12:59:25;;;;;;;12.25;3.03;;;7.40;85.30;;;;;;5021890;28;20052;-49
2021/03/13 13:01:51;;;;;;;12.43;3.13;;;7.70;84.10;;;;;;4976215;28;20041;-58
2021/03/13 13:04:17;;;;;;;19.52;3.67;;;8.50;84.90;;;;;;5003545;28;20604;-55
2021/03/13 13:06:43;;;;;;;23.30;12.15;;;9.20;81.00;;;;;;5023538;28;20052;-55